Leyburn, United Kingdom
Current Conditions -  °F | °C
As of 3:50 AM on Tuesday 21 Oct 2014 (Local Time) from EGXE Reporting Station
Rain Showers Rain Showers  
Wind Chill: 54°   Ceiling: 9000
Heat Index: 54°   Visibility: 6mi
Dew Point: 52°   Wind: 20mph
Humidity: 94%   Direction: 180°S
Pressure: 29.32"   Gusts: NA
Location:  54.31°N, 1.83°W
Report Text: EGXE 210250Z AUTO 18017KT 9999 -SHRA FEW017/// BKN090/// 12/11 Q0993
Loading
Personal Weather Stations






























Interactive Weather Map
Tropical Storm Tracking
New forecast layout! Learn more

10-Day Weather Forecast

Advertisements
Track Severe Weather on mobile